Aiken, South Carolina
Current Conditions -  °F | °C
As of 4:35 AM on Monday 24 Nov 2014 (Local Time) from KAIK Reporting Station
Broken Clouds Broken Clouds  
Wind Chill: 63°   Ceiling: 1300
Heat Index: 63°   Visibility: 10mi
Dew Point: 63°   Wind: 8mph
Humidity: 100%   Direction: 220°SW
Pressure: 29.83"   Gusts: 16mph
Location:  33.56°N, 81.73°W
Report Text: KAIK 240935Z AUTO 22007G14KT 10SM BKN013 BKN021 BKN070 17/17 A2983 RMK AO2 PNO
Loading
Personal Weather Stations






























Interactive Weather Map New forecast layout! Learn more

10-Day Weather Forecast

Advertisements
Track Severe Weather on mobile